Time;durP1;ratioP1;P1;durP2;ratioP2;P2;SDS_P1;SDS_P2;PMS_P1;PMS_P2;Temp;Humidity;BMP_temperature;BMP_pressure;BME280_temperature;BME280_humidity;BME280_pressure;Samples;Min_cycle;Max_cycle;Signal;HPM_P1;HPM_P2
2024/03/11 00:00:45;;;;;;;0.77;0.70;;;;;;;14.21;63.92;98904.25;4477624;31;32099;-82
2024/03/11 00:03:13;;;;;;;0.90;0.50;;;;;;;14.23;63.56;98902.34;4480135;31;33417;-82
2024/03/11 00:05:43;;;;;;;3.72;2.72;;;;;;;14.59;62.06;98899.66;4463714;31;33647;-82
2024/03/11 00:08:16;;;;;;;1.25;0.73;;;;;;;14.04;63.74;98895.69;4478761;31;34257;-82
2024/03/11 00:10:45;;;;;;;0.95;0.95;;;;;;;14.30;63.19;98900.94;4482128;31;33285;-82
2024/03/11 00:13:17;;;;;;;0.60;0.60;;;;;;;14.29;62.88;98897.44;4478049;31;32787;-82
2024/03/11 00:15:45;;;;;;;0.52;0.52;;;;;;;14.00;63.51;98902.19;4492174;31;35493;-82
2024/03/11 00:18:14;;;;;;;0.93;0.93;;;;;;;14.11;63.30;98906.75;4476594;31;34447;-82
2024/03/11 00:20:48;;;;;;;2.83;1.48;;;;;;;14.50;61.77;98903.00;4488735;31;33246;-82
2024/03/11 00:23:16;;;;;;;4.82;2.37;;;;;;;14.26;62.15;98904.78;4477813;31;33670;-82
2024/03/11 00:25:44;;;;;;;1.65;1.17;;;;;;;14.39;61.79;98902.94;4477462;31;33685;-82
2024/03/11 00:28:11;;;;;;;0.47;0.47;;;;;;;14.29;62.05;98912.50;4475871;31;33915;-82
2024/03/11 00:30:40;;;;;;;1.65;0.75;;;;;;;14.57;61.01;98901.59;4479011;31;33382;-82
2024/03/11 00:33:09;;;;;;;0.88;0.88;;;;;;;14.27;61.70;98911.78;4455576;32;33105;-82
2024/03/11 00:35:38;;;;;;;1.05;0.95;;;;;;;14.41;61.36;98901.00;4458513;32;32681;-81
2024/03/11 00:38:07;;;;;;;4.40;1.05;;;;;;;14.42;61.36;98907.16;4473455;31;33732;-81
2024/03/11 00:40:35;;;;;;;4.28;1.77;;;;;;;14.41;61.31;98903.66;4487091;31;33545;-82
2024/03/11 00:43:04;;;;;;;0.90;0.70;;;;;;;14.31;61.40;98902.63;4475587;31;33750;-82
2024/03/11 00:45:32;;;;;;;2.28;1.48;;;;;;;14.11;61.96;98916.50;4472710;31;34853;-82
2024/03/11 00:48:00;;;;;;;0.88;0.88;;;;;;;14.24;61.66;98918.19;4477385;31;32760;-82
2024/03/11 00:50:29;;;;;;;1.37;1.25;;;;;;;14.07;62.06;98927.34;4477524;31;34262;-82
2024/03/11 00:52:57;;;;;;;26.33;2.30;;;;;;;14.37;61.18;98928.72;4489432;31;34033;-82
2024/03/11 00:55:25;;;;;;;5.55;1.75;;;;;;;14.04;61.74;98943.47;4467951;31;33263;-82
2024/03/11 00:57:53;;;;;;;2.72;2.50;;;;;;;14.13;61.68;98941.13;4465253;31;33339;-82
2024/03/11 01:00:22;;;;;;;6.78;1.95;;;;;;;13.92;62.05;98939.06;4478420;31;33427;-82
2024/03/11 01:02:51;;;;;;;2.58;2.37;;;;;;;13.95;62.03;98935.31;4478205;31;33716;-82
2024/03/11 01:05:21;;;;;;;0.60;0.60;;;;;;;13.96;62.15;98937.91;4493799;31;33557;-82
2024/03/11 01:07:49;;;;;;;1.45;1.42;;;;;;;14.03;61.80;98947.09;4475209;31;33765;-82
2024/03/11 01:10:17;;;;;;;3.67;3.33;;;;;;;13.97;61.70;98946.69;4476324;31;34259;-82
2024/03/11 01:12:46;;;;;;;2.10;1.83;;;;;;;14.00;61.77;98947.31;4492443;31;33815;-83
2024/03/11 01:15:13;;;;;;;1.87;1.17;;;;;;;14.19;61.32;98946.84;4490686;31;34478;-82
2024/03/11 01:17:41;;;;;;;9.02;1.20;;;;;;;14.07;61.66;98953.88;4473937;31;33398;-82
2024/03/11 01:20:10;;;;;;;1.70;1.60;;;;;;;14.05;61.87;98950.50;4478964;31;33847;-82
2024/03/11 01:22:39;;;;;;;0.43;0.43;;;;;;;14.07;61.86;98948.59;4468881;31;32271;-80
2024/03/11 01:25:09;;;;;;;1.87;1.55;;;;;;;14.22;61.51;98945.78;4491000;31;34043;-80
2024/03/11 01:27:38;;;;;;;1.55;1.15;;;;;;;14.49;60.42;98937.66;4478817;31;33470;-80
2024/03/11 01:30:07;;;;;;;2.80;0.70;;;;;;;14.23;60.77;98936.84;4464799;31;32186;-80
2024/03/11 01:32:39;;;;;;;1.95;0.95;;;;;;;14.17;60.88;98926.69;4468174;31;32369;-81
2024/03/11 01:35:11;;;;;;;1.08;0.80;;;;;;;14.02;62.17;98923.31;4491673;31;34420;-81
2024/03/11 01:37:41;;;;;;;0.85;0.82;;;;;;;14.17;61.44;98926.69;4477570;31;33440;-81
2024/03/11 01:40:11;;;;;;;7.87;5.35;;;;;;;14.38;60.64;98909.16;4475964;31;32824;-81
2024/03/11 01:42:42;;;;;;;1.77;1.67;;;;;;;14.24;60.70;98912.88;4464965;31;33149;-81
2024/03/11 01:45:12;;;;;;;2.15;1.98;;;;;;;14.35;59.82;98909.41;4480929;31;33409;-81
2024/03/11 01:47:40;;;;;;;4.12;1.62;;;;;;;14.07;60.45;98897.31;4478499;31;33839;-82
2024/03/11 01:50:08;;;;;;;3.00;1.15;;;;;;;14.04;59.82;98895.69;4478076;31;32644;-82
2024/03/11 01:52:38;;;;;;;2.17;1.12;;;;;;;13.87;60.63;98888.13;4476598;31;34035;-82
2024/03/11 01:55:06;;;;;;;0.93;0.82;;;;;;;13.95;60.59;98895.53;4490364;31;34010;-81
2024/03/11 01:57:35;;;;;;;2.33;1.52;;;;;;;14.05;59.68;98885.94;4475909;31;32745;-80
2024/03/11 02:00:08;;;;;;;0.93;0.93;;;;;;;14.15;59.74;98888.75;4477596;31;32642;-80
2024/03/11 02:02:38;;;;;;;1.55;1.35;;;;;;;14.11;59.76;98890.81;4477806;31;33519;-81
2024/03/11 02:05:13;;;;;;;0.98;0.98;;;;;;;14.39;58.86;98894.97;4479278;31;33993;-81
2024/03/11 02:07:45;;;;;;;1.45;0.80;;;;;;;14.36;59.18;98889.84;4488970;31;33980;-81
2024/03/11 02:10:13;;;;;;;1.20;1.10;;;;;;;14.05;60.57;98886.81;4478169;31;33481;-81
2024/03/11 02:12:45;;;;;;;9.52;1.23;;;;;;;13.76;62.22;98890.69;4477273;31;33265;-81
2024/03/11 02:15:14;;;;;;;4.82;2.75;;;;;;;13.95;61.43;98896.34;4494490;31;34836;-81
2024/03/11 02:17:43;;;;;;;2.50;1.58;;;;;;;13.91;62.29;98904.66;4492299;31;34789;-81
2024/03/11 02:20:17;;;;;;;1.12;0.75;;;;;;;13.86;62.79;98889.06;4487925;31;33295;-81
2024/03/11 02:22:52;;;;;;;2.67;2.45;;;;;;;13.73;62.89;98904.19;4477873;31;33758;-81
2024/03/11 02:25:28;;;;;;;2.85;1.23;;;;;;;13.73;63.00;98893.56;4479326;31;35128;-82
2024/03/11 02:27:58;;;;;;;1.05;1.00;;;;;;;13.80;62.72;98892.16;4480638;31;33138;-82
2024/03/11 02:30:26;;;;;;;2.35;1.95;;;;;;;13.66;63.44;98892.28;4492009;31;33525;-82
2024/03/11 02:32:54;;;;;;;0.70;0.70;;;;;;;13.48;63.58;98890.00;4479269;31;34479;-82
2024/03/11 02:35:23;;;;;;;0.88;0.88;;;;;;;13.56;62.69;98884.97;4494804;31;34001;-82
2024/03/11 02:37:50;;;;;;;1.27;1.17;;;;;;;13.42;63.75;98886.91;4481515;31;34957;-81
2024/03/11 02:40:18;;;;;;;1.30;1.27;;;;;;;13.61;62.78;98886.47;4490222;31;33502;-82
2024/03/11 02:42:47;;;;;;;1.10;1.05;;;;;;;13.57;62.87;98891.13;4480584;31;34041;-82
2024/03/11 02:45:16;;;;;;;13.15;1.12;;;;;;;13.52;63.04;98894.09;4464106;31;33849;-82
2024/03/11 02:47:43;;;;;;;3.78;1.90;;;;;;;13.43;62.98;98892.09;4478507;31;33872;-83
2024/03/11 02:50:13;;;;;;;4.05;1.55;;;;;;;13.14;63.38;98885.28;4471805;31;32431;-83
2024/03/11 02:52:41;;;;;;;0.88;0.88;;;;;;;13.32;63.04;98892.00;4490663;31;34578;-83
2024/03/11 02:55:14;;;;;;;1.58;0.90;;;;;;;13.18;63.22;98894.72;4477285;31;33854;-83
2024/03/11 02:57:43;;;;;;;0.50;0.50;;;;;;;13.30;62.64;98881.50;4479697;31;33970;-82
2024/03/11 03:00:11;;;;;;;1.25;1.17;;;;;;;13.04;63.12;98888.56;4490879;31;33561;-82
2024/03/11 03:02:39;;;;;;;2.17;1.92;;;;;;;12.51;65.06;98881.59;4478057;31;33445;-82
2024/03/11 03:05:08;;;;;;;3.90;2.30;;;;;;;12.78;64.72;98893.00;4476862;31;34708;-82
2024/03/11 03:07:36;;;;;;;0.50;0.50;;;;;;;12.99;63.69;98890.69;4475748;31;33562;-82
2024/03/11 03:10:04;;;;;;;1.65;1.12;;;;;;;13.15;63.44;98890.50;4491993;31;33250;-81
2024/03/11 03:12:32;;;;;;;1.67;1.55;;;;;;;13.13;63.38;98891.53;4464709;31;33218;-81
2024/03/11 03:15:00;;;;;;;0.73;0.73;;;;;;;13.18;63.52;98894.72;4471616;31;32190;-81
2024/03/11 03:17:28;;;;;;;3.92;1.55;;;;;;;13.33;63.24;98893.69;4471794;31;33255;-81
2024/03/11 03:19:56;;;;;;;0.35;0.35;;;;;;;13.45;62.61;98892.84;4480697;31;33457;-81
2024/03/11 03:22:24;;;;;;;2.65;2.25;;;;;;;13.51;62.61;98896.87;4480179;31;33875;-81
2024/03/11 03:24:51;;;;;;;0.90;0.90;;;;;;;13.30;63.07;98896.56;4479019;31;33832;-81
2024/03/11 03:27:20;;;;;;;2.78;0.73;;;;;;;13.20;63.65;98896.34;4478249;31;33851;-81
2024/03/11 03:29:48;;;;;;;0.90;0.90;;;;;;;13.56;62.23;98886.78;4477657;31;33334;-81
2024/03/11 03:32:19;;;;;;;1.83;1.37;;;;;;;13.48;62.73;98892.66;4478222;31;33907;-81
2024/03/11 03:34:48;;;;;;;3.85;1.40;;;;;;;13.68;62.23;98887.75;4478815;31;34035;-82
2024/03/11 03:37:16;;;;;;;0.85;0.85;;;;;;;13.72;62.15;98886.53;4477732;31;34890;-82
2024/03/11 03:39:44;;;;;;;3.90;2.03;;;;;;;13.46;63.03;98888.41;4478010;31;33482;-81
2024/03/11 03:42:12;;;;;;;2.20;1.98;;;;;;;13.19;63.90;98899.06;4493536;31;33864;-81
2024/03/11 03:44:40;;;;;;;0.80;0.80;;;;;;;13.18;64.32;98900.03;4491810;31;33709;-82
2024/03/11 03:47:07;;;;;;;2.60;2.33;;;;;;;13.30;63.73;98904.53;4477429;31;34121;-81
2024/03/11 03:49:36;;;;;;;2.80;1.80;;;;;;;13.45;63.14;98892.84;4479830;31;34029;-81
2024/03/11 03:52:05;;;;;;;1.75;1.65;;;;;;;13.28;63.73;98901.13;4477172;31;91451;-81
2024/03/11 03:54:32;;;;;;;1.52;1.08;;;;;;;13.56;63.07;98898.25;4477554;31;34751;-81
2024/03/11 03:57:01;;;;;;;0.88;0.88;;;;;;;13.38;63.74;98893.38;4464157;31;35042;-82
2024/03/11 03:59:29;;;;;;;0.50;0.50;;;;;;;13.32;64.22;98892.00;4466488;31;33407;-81
2024/03/11 04:01:57;;;;;;;1.52;1.42;;;;;;;13.31;64.05;98893.81;4491573;31;34522;-81
2024/03/11 04:04:25;;;;;;;1.50;1.00;;;;;;;13.22;64.53;98893.59;4477108;31;34156;-82
2024/03/11 04:06:52;;;;;;;3.40;1.40;;;;;;;12.94;65.44;98892.78;4491846;31;34136;-82
2024/03/11 04:09:22;;;;;;;2.45;1.27;;;;;;;13.08;64.82;98894.50;4476968;31;33922;-81
2024/03/11 04:11:50;;;;;;;6.90;2.53;;;;;;;12.97;65.17;98897.06;4477275;31;31320;-81
2024/03/11 04:14:17;;;;;;;2.35;1.20;;;;;;;13.24;64.38;98895.19;4476981;31;33567;-82
2024/03/11 04:16:45;;;;;;;13.43;2.53;;;;;;;13.41;63.70;98891.38;4490938;31;33923;-82
2024/03/11 04:19:13;;;;;;;0.80;0.77;;;;;;;13.06;65.39;98891.97;4490783;31;33675;-82
2024/03/11 04:21:40;;;;;;;0.47;0.47;;;;;;;13.31;63.86;98891.16;4472766;31;36045;-82
2024/03/11 04:24:11;;;;;;;1.25;1.15;;;;;;;13.57;62.86;98885.81;4491185;31;33829;-82
2024/03/11 04:26:39;;;;;;;0.63;0.60;;;;;;;13.45;63.39;98884.91;4478430;31;33029;-81
2024/03/11 04:29:07;;;;;;;2.05;1.48;;;;;;;13.61;62.92;98883.81;4466694;31;32288;-81
2024/03/11 04:31:35;;;;;;;1.00;1.00;;;;;;;13.43;63.08;98884.12;4480210;31;33633;-81
2024/03/11 04:34:04;;;;;;;1.77;1.67;;;;;;;13.24;64.21;98889.88;4492189;31;33765;-81
2024/03/11 04:36:33;;;;;;;3.00;2.05;;;;;;;13.05;65.18;98882.34;4494340;31;34089;-81
2024/03/11 04:39:05;;;;;;;7.53;1.55;;;;;;;13.13;65.04;98886.25;4491319;31;34299;-81
2024/03/11 04:41:36;;;;;;;;;;;;;;;13.13;64.75;98883.59;4494222;31;34379;-81
2024/03/11 04:44:03;;;;;;;0.30;0.30;;;;;;;12.97;65.72;98883.81;4479934;31;35415;-81
2024/03/11 04:46:31;;;;;;;1.08;0.98;;;;;;;13.24;64.41;98879.25;4478231;31;33638;-81
2024/03/11 04:48:59;;;;;;;3.60;1.15;;;;;;;13.34;63.83;98879.50;4491960;31;33647;-81
2024/03/11 04:51:26;;;;;;;0.60;0.60;;;;;;;13.27;64.43;98883.53;4494777;31;33646;-81
2024/03/11 04:53:54;;;;;;;3.08;1.00;;;;;;;13.12;64.79;98879.25;4478913;31;34685;-81
2024/03/11 04:56:22;;;;;;;9.38;2.03;;;;;;;13.38;63.60;98874.81;4493991;31;34840;-81
2024/03/11 04:58:51;;;;;;;2.10;1.55;;;;;;;13.27;63.90;98879.06;4478182;31;33473;-81
2024/03/11 05:01:18;;;;;;;1.05;1.00;;;;;;;13.48;63.06;98887.34;4478715;31;33900;-81
2024/03/11 05:03:46;;;;;;;1.83;1.52;;;;;;;13.59;62.23;98883.94;4477959;31;35006;-81
2024/03/11 05:06:14;;;;;;;0.82;0.73;;;;;;;13.60;62.75;98874.16;4464506;31;32673;-81
2024/03/11 05:08:41;;;;;;;0.62;0.62;;;;;;;12.96;64.85;98875.00;4478080;31;32907;-83
2024/03/11 05:11:09;;;;;;;0.90;0.57;;;;;;;13.15;64.22;98876.38;4480016;31;32667;-82
2024/03/11 05:13:37;;;;;;;0.25;0.25;;;;;;;13.21;63.82;98868.03;4479686;31;34657;-82
2024/03/11 05:16:05;;;;;;;6.53;0.37;;;;;;;13.31;63.57;98863.81;4469248;31;32952;-82
2024/03/11 05:18:33;;;;;;;1.25;0.37;;;;;;;13.43;63.17;98867.38;4492802;31;33248;-82
2024/03/11 05:21:01;;;;;;;20.50;1.40;;;;;;;13.14;63.91;98877.34;4481399;31;33747;-82
2024/03/11 05:23:28;;;;;;;0.80;0.75;;;;;;;12.88;64.69;98877.31;4479405;31;34069;-83
2024/03/11 05:25:56;;;;;;;0.95;0.82;;;;;;;12.85;64.99;98872.22;4466500;31;33966;-82
2024/03/11 05:28:24;;;;;;;0.50;0.50;;;;;;;12.99;64.75;98880.09;4493715;31;33557;-82
2024/03/11 05:30:52;;;;;;;0.73;0.73;;;;;;;13.11;64.23;98873.09;4466184;31;33631;-81
2024/03/11 05:33:20;;;;;;;2.08;1.27;;;;;;;13.16;63.96;98876.28;4490535;31;35091;-81
2024/03/11 05:35:48;;;;;;;1.10;1.10;;;;;;;13.10;64.10;98875.84;4464599;31;33657;-81
2024/03/11 05:38:15;;;;;;;0.20;0.20;;;;;;;13.29;63.57;98865.69;4467665;31;32872;-81
2024/03/11 05:40:45;;;;;;;0.98;0.93;;;;;;;12.68;65.16;98877.81;4477900;31;34571;-81
2024/03/11 05:43:13;;;;;;;0.45;0.45;;;;;;;12.77;65.15;98879.84;4491789;31;34123;-81
2024/03/11 05:45:40;;;;;;;2.25;1.25;;;;;;;12.88;64.80;98882.63;4478140;31;34280;-81
2024/03/11 05:48:09;;;;;;;2.00;1.02;;;;;;;12.77;65.21;98890.44;4492288;31;33611;-81
2024/03/11 05:50:38;;;;;;;0.95;0.95;;;;;;;12.80;65.04;98887.59;4489960;31;33916;-81
2024/03/11 05:53:05;;;;;;;1.33;1.23;;;;;;;12.99;64.34;98885.38;4479381;31;32658;-81
2024/03/11 05:55:33;;;;;;;0.40;0.40;;;;;;;13.14;64.15;98887.94;4466236;31;34276;-81
2024/03/11 05:58:08;;;;;;;0.98;0.98;;;;;;;12.96;65.01;98892.69;4491761;31;33223;-81
2024/03/11 06:00:43;;;;;;;0.95;0.90;;;;;;;13.16;63.72;98894.84;4492066;31;33550;-81
2024/03/11 06:03:11;;;;;;;3.65;2.20;;;;;;;12.98;64.57;98898.75;4481358;31;33571;-81
2024/03/11 06:05:40;;;;;;;0.65;0.65;;;;;;;13.07;63.92;98896.31;4479094;31;34576;-82
2024/03/11 06:08:08;;;;;;;2.78;2.30;;;;;;;13.27;63.56;98904.72;4476228;31;33176;-81
2024/03/11 06:10:36;;;;;;;6.03;1.02;;;;;;;13.13;64.10;98904.81;4491474;31;33550;-81
2024/03/11 06:13:04;;;;;;;2.83;0.95;;;;;;;12.77;65.33;98908.97;4479331;31;33753;-80
2024/03/11 06:15:32;;;;;;;0.93;0.90;;;;;;;12.65;65.69;98907.16;4483281;31;34730;-81
2024/03/11 06:18:00;;;;;;;1.85;1.08;;;;;;;12.73;65.50;98905.69;4460468;31;33531;-81
2024/03/11 06:20:28;;;;;;;1.12;1.02;;;;;;;12.82;65.33;98910.37;4477584;31;33863;-81
2024/03/11 06:22:56;;;;;;;2.87;1.27;;;;;;;13.38;63.61;98912.78;4477704;31;33769;-81
2024/03/11 06:25:24;;;;;;;2.17;1.05;;;;;;;13.10;64.36;98919.09;4492537;31;34153;-81
2024/03/11 06:27:52;;;;;;;2.67;2.25;;;;;;;13.33;63.65;98921.06;4479495;31;34002;-81
2024/03/11 06:30:20;;;;;;;0.88;0.65;;;;;;;12.78;65.52;98918.63;4474130;31;34175;-81
2024/03/11 06:32:49;;;;;;;2.75;1.45;;;;;;;12.65;66.33;98918.59;4465438;31;32575;-81
2024/03/11 06:35:17;;;;;;;0.22;0.22;;;;;;;12.91;64.99;98924.78;4479812;31;34814;-81
2024/03/11 06:37:45;;;;;;;6.55;1.58;;;;;;;12.97;65.13;98918.25;4479683;31;33570;-82
2024/03/11 06:40:17;;;;;;;2.28;2.17;;;;;;;12.81;65.53;98926.34;4479477;31;33559;-81
2024/03/11 06:42:46;;;;;;;0.43;0.40;;;;;;;12.97;64.80;98928.84;4493331;31;33997;-82
2024/03/11 06:45:15;;;;;;;3.28;2.50;;;;;;;12.95;65.33;98928.09;4492843;31;34724;-81
2024/03/11 06:47:43;;;;;;;3.35;2.37;;;;;;;13.07;64.80;98945.81;4477917;31;34477;-81
2024/03/11 06:50:13;;;;;;;1.23;1.15;;;;;;;12.91;65.18;98930.09;4479465;31;33829;-81
2024/03/11 06:52:41;;;;;;;2.03;1.92;;;;;;;12.98;64.89;98939.34;4478743;31;34392;-81
2024/03/11 06:55:12;;;;;;;0.52;0.47;;;;;;;13.36;63.58;98938.56;4490161;31;33510;-81
2024/03/11 06:57:41;;;;;;;1.15;1.12;;;;;;;13.16;64.10;98937.25;4478412;31;32821;-80
2024/03/11 07:00:19;;;;;;;0.95;0.62;;;;;;;12.97;64.74;98937.66;4477575;31;33672;-81
2024/03/11 07:02:47;;;;;;;1.75;1.62;;;;;;;13.21;64.32;98932.47;4479530;31;33971;-79
2024/03/11 07:05:17;;;;;;;1.58;1.48;;;;;;;13.45;63.61;98935.28;4489056;31;36283;-80
2024/03/11 07:07:46;;;;;;;1.85;1.75;;;;;;;13.21;63.65;98926.34;4467325;31;32889;-80
2024/03/11 07:10:15;;;;;;;1.08;1.08;;;;;;;13.13;63.94;98923.34;4477234;31;32481;-80
2024/03/11 07:12:44;;;;;;;1.98;1.52;;;;;;;12.84;64.92;98928.81;4478127;31;34497;-80
2024/03/11 07:15:13;;;;;;;0.57;0.57;;;;;;;12.92;64.44;98925.66;4478680;31;34820;-80
2024/03/11 07:17:41;;;;;;;10.07;1.45;;;;;;;12.89;64.66;98929.34;4476653;31;32182;-80
2024/03/11 07:20:13;;;;;;;1.08;0.65;;;;;;;12.97;64.34;98927.06;4470807;31;32900;-79
2024/03/11 07:22:42;;;;;;;0.98;0.85;;;;;;;12.89;64.75;98929.34;4490472;31;33680;-80
2024/03/11 07:25:10;;;;;;;1.05;1.00;;;;;;;13.21;63.88;98931.63;4493676;31;34975;-80
2024/03/11 07:27:39;;;;;;;6.72;3.08;;;;;;;13.37;63.44;98931.47;4478811;31;32845;-80
2024/03/11 07:30:07;;;;;;;2.10;1.77;;;;;;;13.36;63.84;98932.41;4478268;31;32642;-80
2024/03/11 07:32:36;;;;;;;1.25;1.17;;;;;;;13.32;63.93;98943.22;4478654;31;34650;-80
2024/03/11 07:35:04;;;;;;;1.30;1.25;;;;;;;13.74;62.16;98932.41;4478825;31;33304;-80
2024/03/11 07:37:36;;;;;;;1.23;1.15;;;;;;;13.49;63.34;98942.06;4463860;31;32549;-80
2024/03/11 07:40:12;;;;;;;1.23;1.17;;;;;;;13.49;63.09;98955.34;4477599;31;33575;-80
2024/03/11 07:42:39;;;;;;;3.55;1.50;;;;;;;13.26;64.12;98956.06;4488717;31;34484;-80
2024/03/11 07:45:10;;;;;;;1.62;1.52;;;;;;;13.12;64.71;98951.66;4490717;31;33953;-80
2024/03/11 07:47:39;;;;;;;0.10;0.10;;;;;;;12.99;64.89;98954.28;4476732;31;33385;-80
2024/03/11 07:50:09;;;;;;;2.28;0.60;;;;;;;13.56;63.29;98961.91;4477292;31;34639;-79
2024/03/11 07:52:37;;;;;;;1.55;0.90;;;;;;;13.46;63.98;98967.94;4477889;31;34018;-80
2024/03/11 07:55:06;;;;;;;2.22;1.65;;;;;;;13.54;63.58;98971.78;4477802;31;34359;-79
2024/03/11 07:57:36;;;;;;;0.98;0.95;;;;;;;13.55;63.67;98968.16;4489447;31;34390;-80
2024/03/11 08:00:09;;;;;;;1.85;1.75;;;;;;;13.55;63.52;98968.16;4490841;31;33959;-80
2024/03/11 08:02:37;;;;;;;0.75;0.75;;;;;;;13.71;63.09;98964.44;4477083;31;33952;-80
2024/03/11 08:05:13;;;;;;;1.42;1.33;;;;;;;13.62;63.60;98967.72;4466173;31;32735;-80
2024/03/11 08:07:45;;;;;;;5.37;2.08;;;;;;;13.29;64.55;98977.03;4469388;31;33457;-79
2024/03/11 08:10:13;;;;;;;4.15;2.70;;;;;;;13.88;62.71;98973.88;4492309;31;33545;-80
2024/03/11 08:12:43;;;;;;;1.58;1.48;;;;;;;13.45;64.05;98964.44;4479437;31;33672;-79
2024/03/11 08:15:15;;;;;;;4.30;1.27;;;;;;;13.66;63.27;98971.87;4478438;31;34259;-80
2024/03/11 08:17:46;;;;;;;3.62;2.08;;;;;;;13.80;63.08;98956.69;4490925;31;34503;-79
2024/03/11 08:20:18;;;;;;;1.52;1.42;;;;;;;13.72;63.61;98947.56;4479758;31;34239;-80
2024/03/11 08:22:48;;;;;;;2.28;1.85;;;;;;;13.62;64.04;98952.66;4483502;31;33852;-79
2024/03/11 08:25:23;;;;;;;2.28;1.45;;;;;;;13.48;64.12;98956.28;4480205;31;34670;-80
2024/03/11 08:27:52;;;;;;;1.15;1.10;;;;;;;13.60;64.25;98951.94;4492896;31;33550;-80
2024/03/11 08:30:22;;;;;;;2.22;1.23;;;;;;;13.44;64.88;98959.25;4491039;31;35879;-81
2024/03/11 08:32:52;;;;;;;1.42;1.30;;;;;;;13.55;64.80;98960.22;4478988;31;34507;-80
2024/03/11 08:35:23;;;;;;;0.88;0.85;;;;;;;13.93;63.25;98956.69;4478616;31;34159;-80
2024/03/11 08:37:50;;;;;;;21.58;2.03;;;;;;;13.95;62.86;98944.13;4464969;31;32155;-80
2024/03/11 08:40:22;;;;;;;1.75;1.55;;;;;;;13.77;63.24;98941.00;4491348;31;32959;-80
2024/03/11 08:42:51;;;;;;;0.90;0.90;;;;;;;13.81;63.48;98942.50;4491660;31;33161;-80
2024/03/11 08:45:22;;;;;;;1.95;1.50;;;;;;;13.87;62.92;98957.13;4489221;31;33829;-80
2024/03/11 08:47:51;;;;;;;1.37;1.10;;;;;;;13.93;62.82;98956.69;4468740;31;32912;-80
2024/03/11 08:50:21;;;;;;;2.80;2.55;;;;;;;13.94;63.25;98962.81;4476863;31;32543;-80
2024/03/11 08:52:50;;;;;;;1.42;1.33;;;;;;;13.84;64.19;98957.31;4491201;31;33996;-81
2024/03/11 08:55:18;;;;;;;1.42;1.33;;;;;;;14.39;62.44;98960.50;4465236;31;33680;-80
2024/03/11 08:57:46;;;;;;;2.10;1.92;;;;;;;14.03;62.66;98952.41;4466306;31;32773;-80
2024/03/11 09:00:18;;;;;;;2.03;1.33;;;;;;;13.58;64.24;98970.63;4479215;31;32617;-80
2024/03/11 09:02:46;;;;;;;5.37;2.50;;;;;;;13.70;64.21;98968.06;4480826;31;32237;-80
2024/03/11 09:05:17;;;;;;;2.65;2.22;;;;;;;13.82;63.86;98969.88;4467560;31;34497;-80
2024/03/11 09:07:47;;;;;;;9.80;2.28;;;;;;;13.77;64.00;98970.19;4490487;31;32259;-80
2024/03/11 09:10:15;;;;;;;0.98;0.73;;;;;;;13.65;64.57;98967.53;4481068;31;34485;-80
2024/03/11 09:12:44;;;;;;;4.43;2.20;;;;;;;13.85;63.57;98961.66;4493015;31;34832;-79
2024/03/11 09:15:15;;;;;;;2.37;1.02;;;;;;;13.97;63.21;98955.50;4477675;31;34040;-80
2024/03/11 09:17:49;;;;;;;1.50;1.40;;;;;;;13.92;63.70;98970.06;4490829;31;33644;-80
2024/03/11 09:20:19;;;;;;;3.40;3.15;;;;;;;13.88;63.71;98964.13;4477304;31;33009;-80
2024/03/11 09:22:49;;;;;;;2.90;2.10;;;;;;;13.64;64.10;98961.38;4492226;31;33511;-80
2024/03/11 09:25:24;;;;;;;1.40;1.35;;;;;;;13.18;65.91;98967.16;4477939;31;33085;-80
2024/03/11 09:27:55;;;;;;;0.50;0.50;;;;;;;13.38;66.23;98971.13;4479005;31;31881;-80
2024/03/11 09:30:27;;;;;;;1.55;1.15;;;;;;;13.60;65.38;98959.88;4477245;31;32698;-81
2024/03/11 09:32:55;;;;;;;2.65;0.93;;;;;;;13.64;65.82;98971.16;4493922;31;34377;-80
2024/03/11 09:35:23;;;;;;;2.85;1.48;;;;;;;13.18;66.97;98976.91;4477656;31;32563;-80
2024/03/11 09:37:52;;;;;;;2.47;2.28;;;;;;;13.58;65.94;98983.03;4478347;31;33202;-81
2024/03/11 09:40:26;;;;;;;1.52;1.17;;;;;;;13.42;66.65;98977.91;4478861;31;32001;-80
2024/03/11 09:42:56;;;;;;;0.75;0.75;;;;;;;13.81;65.68;98969.03;4491399;31;34836;-80
2024/03/11 09:45:28;;;;;;;3.60;2.22;;;;;;;13.90;65.42;98972.81;4489619;31;34020;-80
2024/03/11 09:48:00;;;;;;;0.82;0.62;;;;;;;13.86;65.16;98970.47;4479164;31;33382;-80
2024/03/11 09:50:30;;;;;;;0.98;0.98;;;;;;;14.09;65.06;98967.88;4489544;31;34427;-80
2024/03/11 09:53:03;;;;;;;1.30;0.88;;;;;;;13.38;67.27;98975.56;4476981;31;35142;-80
2024/03/11 09:55:33;;;;;;;1.48;1.35;;;;;;;13.78;65.48;98979.84;4480285;31;33731;-80
2024/03/11 09:58:06;;;;;;;1.70;1.08;;;;;;;14.26;64.31;98976.47;4478592;31;34861;-80
2024/03/11 10:00:55;;;;;;;2.83;2.33;;;;;;;13.91;66.00;98987.78;4491275;31;34080;-80
2024/03/11 10:03:24;;;;;;;2.62;1.75;;;;;;;13.80;66.07;98988.53;4478044;31;32908;-80
2024/03/11 10:05:58;;;;;;;1.12;1.12;;;;;;;13.75;66.10;98976.53;4475895;31;34748;-80
2024/03/11 10:08:30;;;;;;;1.95;1.75;;;;;;;13.68;65.14;98978.78;4490491;31;32924;-80
2024/03/11 10:11:17;;;;;;;1.25;1.25;;;;;;;13.79;65.12;98978.03;4479382;31;34614;-80
2024/03/11 10:13:45;;;;;;;1.10;1.10;;;;;;;13.85;64.49;98974.94;4490290;31;34755;-80
2024/03/11 10:16:17;;;;;;;1.12;0.95;;;;;;;13.92;64.49;98975.38;4477117;31;33105;-80
2024/03/11 10:19:00;;;;;;;1.42;1.10;;;;;;;13.54;65.48;98971.78;4476558;31;31006;-80
2024/03/11 10:21:33;;;;;;;3.35;1.80;;;;;;;13.50;66.19;98975.59;4476196;31;31580;-80
2024/03/11 10:24:03;;;;;;;3.85;1.20;;;;;;;13.79;65.71;98970.06;4472162;31;35081;-80
2024/03/11 10:26:33;;;;;;;1.55;1.45;;;;;;;14.00;64.60;98967.69;4489432;31;33449;-80
2024/03/11 10:29:02;;;;;;;1.50;1.23;;;;;;;13.94;64.64;98968.12;4465728;31;34145;-80
2024/03/11 10:31:33;;;;;;;0.32;0.32;;;;;;;13.86;64.67;98976.62;4490765;31;33513;-80
2024/03/11 10:34:13;;;;;;;2.42;1.58;;;;;;;14.14;64.31;98964.06;4491126;31;33976;-80
2024/03/11 10:36:44;;;;;;;1.12;0.85;;;;;;;14.17;64.83;98951.41;4464185;31;31729;-80
2024/03/11 10:41:51;;;;;;;1.37;1.30;;;;;;;13.93;65.52;98946.06;4491439;31;32781;-80
2024/03/11 10:44:23;;;;;;;1.37;1.27;;;;;;;14.64;64.16;98930.34;4477173;31;32568;-80
2024/03/11 10:46:52;;;;;;;5.82;2.65;;;;;;;14.70;63.50;98924.56;4488199;31;34867;-80
2024/03/11 10:49:21;;;;;;;19.83;3.28;;;;;;;14.79;62.46;98918.56;4470758;31;32649;-80
2024/03/11 10:51:50;;;;;;;5.05;2.10;;;;;;;14.77;61.92;98915.19;4477855;31;32389;-80
2024/03/11 10:54:31;;;;;;;3.45;2.00;;;;;;;14.63;63.43;98918.87;4478461;31;33975;-80
2024/03/11 10:57:01;;;;;;;0.75;0.75;;;;;;;14.81;62.26;98906.00;4466607;31;33380;-80
2024/03/11 10:59:34;;;;;;;2.30;1.98;;;;;;;14.58;62.50;98908.59;4493315;31;33452;-80
2024/03/11 11:02:04;;;;;;;2.40;1.45;;;;;;;14.26;63.46;98910.09;4476573;31;34463;-80
2024/03/11 11:04:33;;;;;;;2.37;1.77;;;;;;;13.90;65.33;98898.50;4464716;31;32491;-80
2024/03/11 11:07:02;;;;;;;1.62;1.52;;;;;;;13.99;64.15;98881.91;4490076;31;32552;-80
2024/03/11 11:09:31;;;;;;;1.58;1.48;;;;;;;14.55;63.17;98873.44;4491126;31;33634;-81
2024/03/11 11:12:03;;;;;;;2.65;2.42;;;;;;;14.45;63.60;98864.44;4490201;31;33974;-80
2024/03/11 11:14:33;;;;;;;9.38;2.53;;;;;;;14.31;64.43;98861.00;4477762;31;34488;-80
2024/03/11 11:17:02;;;;;;;2.47;1.05;;;;;;;14.35;63.13;98851.00;4476603;31;35668;-80
2024/03/11 11:19:32;;;;;;;1.17;1.08;;;;;;;14.09;64.66;98866.16;4462341;31;32119;-80
2024/03/11 11:22:02;;;;;;;3.08;2.78;;;;;;;14.19;65.42;98887.59;4490089;31;33998;-80
2024/03/11 11:24:31;;;;;;;2.60;1.05;;;;;;;13.99;66.27;98897.84;4491480;31;34357;-80
2024/03/11 11:27:06;;;;;;;3.37;2.78;;;;;;;14.09;66.08;98888.25;4478368;31;34334;-80
2024/03/11 11:29:35;;;;;;;3.30;2.13;;;;;;;14.62;64.19;98879.13;4478601;31;32347;-80
2024/03/11 11:32:06;;;;;;;1.27;1.08;;;;;;;14.59;64.22;98881.06;4488006;31;33900;-80
2024/03/11 11:34:47;;;;;;;2.35;1.90;;;;;;;14.74;64.07;98884.38;4467026;31;32217;-80
2024/03/11 11:37:19;;;;;;;0.75;0.75;;;;;;;14.54;63.80;98893.84;4480650;31;34617;-80
2024/03/11 11:39:47;;;;;;;1.00;0.95;;;;;;;14.62;63.88;98905.69;4488711;31;33206;-80
2024/03/11 11:42:40;;;;;;;4.18;1.30;;;;;;;14.84;63.32;98896.00;4476725;31;34318;-80
2024/03/11 11:45:11;;;;;;;3.80;2.33;;;;;;;14.35;64.55;98907.59;4475815;31;34399;-80
2024/03/11 11:47:40;;;;;;;1.55;1.27;;;;;;;14.39;65.34;98892.31;4488095;31;34114;-80